Language: 


Des rapports , des résumés tant et plus, au choix de chacun....


Données Historiques de Météogheer
Journalier Rapport pour Février 4, 2018 Unitée:  Les deux    Impériale   Métrique
Suivant Jour »
Journalier Hebdomadaire Mensuel Annuel Sur mesure
  Max: Min: Moyenne:
Température: 43.2 °F /  6.2 °C 32.2 °F /  0.1 °C 36.5 °F /  2.5 °C
Point de rosée: 37.4 °F /  3.0 °C 26.6 °F /  -3.0 °C 31.5 °F /  -0.3 °C
Humidité: 98% 57% 81%
Vent: 23.9mph /  38.5km/h - 8.4mph /  13.5km/h
Rafales: 24.4mph /  39.3km/h - -
Vent- - ENE
Pression: 30.3 in /  1024.9 hPa 29.8 in /  1008.0 hPa -
Pluie: 0.01 in /  0.3 mm    
Historical Graphs
 
 
Données tabulaires pour Février 4, 2018
Heure Température Point de rosée Pression Vent Vent Rafales Humidité Pluie Taux (Horaire) Conditions
00:00 35.4 °F /  1.9 °C 35.6 °F /  2.0 °C 29.8in /  1008.0hPa Calm   3.1mph /  5.0km/h 98% 0in /  0.0mm
00:05 35.2 °F /  1.8 °C 35.6 °F /  2.0 °C 29.8in /  1008.0hPa Calm     98% 0in /  0.0mm
00:10 35.1 °F /  1.7 °C 35.6 °F /  2.0 °C 29.8in /  1008.0hPa Calm   2mph /  3.2km/h 98% 0in /  0.0mm
00:15 35.1 °F /  1.7 °C 35.6 °F /  2.0 °C 29.8in /  1009.0hPa Calm   2mph /  3.2km/h 98% 0in /  0.0mm
00:20 35.1 °F /  1.7 °C 35.6 °F /  2.0 °C 29.8in /  1009.0hPa North 2.7mph /  4.3km/h 4mph /  6.4km/h 98% 0in /  0.0mm
00:25 35.1 °F /  1.7 °C 35.6 °F /  2.0 °C 29.8in /  1009.0hPa Calm   4mph /  6.4km/h 98% 0in /  0.0mm
00:30 35.2 °F /  1.8 °C 35.6 °F /  2.0 °C 29.8in /  1009.0hPa NNE 2.5mph /  4.0km/h 4mph /  6.4km/h 98% 0in /  0.0mm
00:35 35.4 °F /  1.9 °C 35.6 °F /  2.0 °C 29.8in /  1009.0hPa NE 3.1mph /  5.0km/h 4.9mph /  7.9km/h 98% 0in /  0.0mm
00:40 35.6 °F /  2.0 °C 35.6 °F /  2.0 °C 29.8in /  1009.0hPa North 2.9mph /  4.7km/h 5.8mph /  9.3km/h 98% 0in /  0.0mm
00:45 35.6 °F /  2.0 °C 35.6 °F /  2.0 °C 29.8in /  1009.0hPa North 3.8mph /  6.1km/h 5.8mph /  9.3km/h 98% 0in /  0.0mm
00:47 35.6 °F /  2.0 °C 35.6 °F /  2.0 °C 29.8in /  1009.0hPa NNE 4.7mph /  7.6km/h 5.8mph /  9.3km/h 98% 0in /  0.0mm
00:52 35.8 °F /  2.1 °C 35.6 °F /  2.0 °C 29.8in /  1009.0hPa North 4mph /  6.4km/h 4.7mph /  7.6km/h 98% 0in /  0.0mm
00:57 35.8 °F /  2.1 °C 35.6 °F /  2.0 °C 29.8in /  1009.0hPa North 2mph /  3.2km/h 4.7mph /  7.6km/h 98% 0in /  0.0mm
01:02 36.1 °F /  2.3 °C 37.4 °F /  3.0 °C 29.8in /  1009.0hPa North 4.7mph /  7.6km/h 4.9mph /  7.9km/h 98% 0in /  0.0mm
01:07 36.3 °F /  2.4 °C 37.4 °F /  3.0 °C 29.8in /  1009.0hPa Calm   7.4mph /  11.9km/h 98% 0in /  0.0mm
01:12 36.7 °F /  2.6 °C 37.4 °F /  3.0 °C 29.8in /  1009.0hPa Calm   7.4mph /  11.9km/h 98% 0in /  0.0mm
01:17 36.7 °F /  2.6 °C 37.4 °F /  3.0 °C 29.8in /  1009.0hPa NE 1.3mph /  2.1km/h 5.8mph /  9.3km/h 98% 0in /  0.0mm
01:22 36.9 °F /  2.7 °C 37.4 °F /  3.0 °C 29.8in /  1009.0hPa NW 4mph /  6.4km/h 4.3mph /  6.9km/h 98% 0in /  0.0mm
01:27 37 °F /  2.8 °C 37.4 °F /  3.0 °C 29.8in /  1009.0hPa NNE 5.8mph /  9.3km/h 6.3mph /  10.1km/h 98% 0in /  0.0mm
01:32 37.2 °F /  2.9 °C 37.4 °F /  3.0 °C 29.8in /  1010.0hPa Calm   6.3mph /  10.1km/h 98% 0in /  0.0mm
01:37 37.2 °F /  2.9 °C 37.4 °F /  3.0 °C 29.8in /  1010.0hPa NE 4mph /  6.4km/h 5.8mph /  9.3km/h 98% 0in /  0.0mm
01:42 37.2 °F /  2.9 °C 37.4 °F /  3.0 °C 29.8in /  1010.0hPa North 2.7mph /  4.3km/h 5.8mph /  9.3km/h 98% 0in /  0.0mm
01:47 37.2 °F /  2.9 °C 37.4 °F /  3.0 °C 29.8in /  1010.0hPa NNE 3.4mph /  5.5km/h 6mph /  9.7km/h 98% 0in /  0.0mm
01:52 37.2 °F /  2.9 °C 37.4 °F /  3.0 °C 29.8in /  1010.0hPa NNE 3.1mph /  5.0km/h 6mph /  9.7km/h 98% 0in /  0.0mm
01:57 37.2 °F /  2.9 °C 37.4 °F /  3.0 °C 29.8in /  1010.0hPa NNE 3.4mph /  5.5km/h 6mph /  9.7km/h 98% 0in /  0.0mm
02:02 37 °F /  2.8 °C 37.4 °F /  3.0 °C 29.8in /  1010.0hPa NE 6.3mph /  10.1km/h 7.4mph /  11.9km/h 98% 0in /  0.0mm
02:07 37 °F /  2.8 °C 37.4 °F /  3.0 °C 29.8in /  1010.0hPa NNE 7.4mph /  11.9km/h 8.7mph /  14.0km/h 98% 0in /  0.0mm
02:13 37 °F /  2.8 °C 37.4 °F /  3.0 °C 29.8in /  1010.0hPa NE 5.6mph /  9.0km/h 8.7mph /  14.0km/h 98% 0in /  0.0mm
02:18 37 °F /  2.8 °C 37.4 °F /  3.0 °C 29.9in /  1011.1hPa NE 6.5mph /  10.5km/h 8.5mph /  13.7km/h 98% 0in /  0.0mm
02:23 37.4 °F /  3.0 °C 37.4 °F /  3.0 °C 29.9in /  1011.1hPa NE 7.2mph /  11.6km/h 8.7mph /  14.0km/h 98% 0in /  0.0mm
02:28 37.4 °F /  3.0 °C 37.4 °F /  3.0 °C 29.9in /  1011.1hPa NE 5.8mph /  9.3km/h 8.7mph /  14.0km/h 98% 0in /  0.0mm
02:33 37.4 °F /  3.0 °C 37.4 °F /  3.0 °C 29.8in /  1010.0hPa NNE 7.4mph /  11.9km/h 9.6mph /  15.4km/h 98% 0in /  0.0mm
02:38 37.4 °F /  3.0 °C 37.4 °F /  3.0 °C 29.8in /  1010.0hPa NE 8.9mph /  14.3km/h 12.3mph /  19.8km/h 98% 0in /  0.0mm
02:43 37.4 °F /  3.0 °C 37.4 °F /  3.0 °C 29.8in /  1010.0hPa NE 10.1mph /  16.3km/h 12.3mph /  19.8km/h 98% 0in /  0.0mm
02:48 37.4 °F /  3.0 °C 37.4 °F /  3.0 °C 29.8in /  1010.0hPa NNE 6.5mph /  10.5km/h 12.3mph /  19.8km/h 98% 0in /  0.0mm
02:53 37.4 °F /  3.0 °C 37.4 °F /  3.0 °C 29.8in /  1010.0hPa NE 8.1mph /  13.0km/h 10.1mph /  16.3km/h 98% 0.01in /  0.3mm
02:58 37.2 °F /  2.9 °C 37.4 °F /  3.0 °C 29.8in /  1010.0hPa NE 8.1mph /  13.0km/h 13.2mph /  21.2km/h 98% 0.01in /  0.3mm
03:03 37.2 °F /  2.9 °C 37.4 °F /  3.0 °C 29.9in /  1011.1hPa NE 9.6mph /  15.4km/h 13.2mph /  21.2km/h 98% 0.01in /  0.3mm
03:08 37 °F /  2.8 °C 37.4 °F /  3.0 °C 29.9in /  1011.1hPa NE 7.6mph /  12.2km/h 14.1mph /  22.7km/h 98% 0.01in /  0.3mm
03:13 37 °F /  2.8 °C 37.4 °F /  3.0 °C 29.9in /  1011.1hPa NE 9.4mph /  15.1km/h 14.1mph /  22.7km/h 98% 0.01in /  0.3mm
03:18 36.9 °F /  2.7 °C 37.4 °F /  3.0 °C 29.9in /  1011.1hPa NE 8.1mph /  13.0km/h 13.4mph /  21.6km/h 98% 0.01in /  0.3mm
03:23 36.7 °F /  2.6 °C 37.4 °F /  3.0 °C 29.9in /  1011.1hPa NE 19.7mph /  31.7km/h 19.7mph /  31.7km/h 98% 0.01in /  0.3mm
03:28 36.5 °F /  2.5 °C 37.4 °F /  3.0 °C 29.9in /  1011.1hPa NNE 10.7mph /  17.2km/h 19.7mph /  31.7km/h 98% 0.01in /  0.3mm
03:33 36.5 °F /  2.5 °C 37.4 °F /  3.0 °C 29.9in /  1011.1hPa NNE 11mph /  17.7km/h 15.4mph /  24.8km/h 98% 0.01in /  0.3mm
03:38 36.3 °F /  2.4 °C 37.4 °F /  3.0 °C 29.9in /  1011.1hPa NNE 8.7mph /  14.0km/h 14.1mph /  22.7km/h 98% 0.01in /  0.3mm
03:43 36.3 °F /  2.4 °C 37.4 °F /  3.0 °C 29.9in /  1011.1hPa NE 8.9mph /  14.3km/h 14.1mph /  22.7km/h 98% 0.01in /  0.3mm
03:48 36.1 °F /  2.3 °C 37.4 °F /  3.0 °C 29.9in /  1012.1hPa NNE 15.2mph /  24.5km/h 15.2mph /  24.5km/h 98% 0.01in /  0.3mm
03:53 36.1 °F /  2.3 °C 37.4 °F /  3.0 °C 29.9in /  1012.1hPa NE 8.5mph /  13.7km/h 15.4mph /  24.8km/h 98% 0in /  0.0mm
03:58 36.1 °F /  2.3 °C 37.4 °F /  3.0 °C 29.9in /  1012.1hPa NNE 9.8mph /  15.8km/h 15.4mph /  24.8km/h 98% 0in /  0.0mm
04:03 36.1 °F /  2.3 °C 37.4 °F /  3.0 °C 29.9in /  1013.1hPa North 11mph /  17.7km/h 14.5mph /  23.3km/h 98% 0in /  0.0mm
04:08 36 °F /  2.2 °C 35.6 °F /  2.0 °C 29.9in /  1013.1hPa NE 8.7mph /  14.0km/h 15.7mph /  25.3km/h 98% 0in /  0.0mm
04:13 35.8 °F /  2.1 °C 35.6 °F /  2.0 °C 29.9in /  1013.1hPa NNE 15.2mph /  24.5km/h 17mph /  27.4km/h 97% 0in /  0.0mm
04:18 35.8 °F /  2.1 °C 35.6 °F /  2.0 °C 29.9in /  1013.1hPa ENE 10.5mph /  16.9km/h 17mph /  27.4km/h 96% 0in /  0.0mm
04:23 35.8 °F /  2.1 °C 35.6 °F /  2.0 °C 29.9in /  1013.1hPa NE 8.5mph /  13.7km/h 15.2mph /  24.5km/h 96% 0in /  0.0mm
04:28 35.8 °F /  2.1 °C 35.6 °F /  2.0 °C 29.9in /  1012.1hPa NE 13mph /  20.9km/h 14.3mph /  23.0km/h 95% 0in /  0.0mm
04:34 35.8 °F /  2.1 °C 35.6 °F /  2.0 °C 29.9in /  1012.1hPa NNE 8.1mph /  13.0km/h 13mph /  20.9km/h 95% 0in /  0.0mm
04:39 35.6 °F /  2.0 °C 35.6 °F /  2.0 °C 29.9in /  1012.1hPa NNE 9.8mph /  15.8km/h 13mph /  20.9km/h 95% 0in /  0.0mm
04:44 35.6 °F /  2.0 °C 35.6 °F /  2.0 °C 29.9in /  1013.1hPa North 8.5mph /  13.7km/h 10.5mph /  16.9km/h 95% 0in /  0.0mm
04:49 35.6 °F /  2.0 °C 35.6 °F /  2.0 °C 29.9in /  1013.1hPa NE 8.1mph /  13.0km/h 10.7mph /  17.2km/h 95% 0in /  0.0mm
04:54 35.6 °F /  2.0 °C 35.6 °F /  2.0 °C 29.9in /  1013.1hPa NE 10.7mph /  17.2km/h 10.7mph /  17.2km/h 95% 0in /  0.0mm
04:59 35.4 °F /  1.9 °C 33.8 °F /  1.0 °C 29.9in /  1013.1hPa NE 12.8mph /  20.6km/h 16.8mph /  27.0km/h 93% 0in /  0.0mm
05:04 35.4 °F /  1.9 °C 33.8 °F /  1.0 °C 29.9in /  1013.1hPa NE 10.5mph /  16.9km/h 17.9mph /  28.8km/h 91% 0in /  0.0mm
05:09 35.4 °F /  1.9 °C 33.8 °F /  1.0 °C 29.9in /  1013.1hPa NE 11mph /  17.7km/h 17.9mph /  28.8km/h 89% 0in /  0.0mm
05:14 35.4 °F /  1.9 °C 32 °F /  0.0 °C 29.9in /  1014.1hPa NE 10.1mph /  16.3km/h 19mph /  30.6km/h 88% 0in /  0.0mm
05:19 35.2 °F /  1.8 °C 32 °F /  0.0 °C 29.9in /  1014.1hPa NNE 17.7mph /  28.5km/h 19mph /  30.6km/h 86% 0in /  0.0mm
05:24 35.2 °F /  1.8 °C 32 °F /  0.0 °C 29.9in /  1014.1hPa NE 9.6mph /  15.4km/h 17.7mph /  28.5km/h 86% 0in /  0.0mm
05:29 35.1 °F /  1.7 °C 32 °F /  0.0 °C 29.9in /  1014.1hPa NNE 9.8mph /  15.8km/h 15.7mph /  25.3km/h 87% 0in /  0.0mm
05:34 35.1 °F /  1.7 °C 32 °F /  0.0 °C 29.9in /  1014.1hPa NE 10.3mph /  16.6km/h 15.4mph /  24.8km/h 87% 0in /  0.0mm
05:39 35.1 °F /  1.7 °C 32 °F /  0.0 °C 29.9in /  1014.1hPa NNE 10.1mph /  16.3km/h 15.4mph /  24.8km/h 87% 0in /  0.0mm
05:44 35.1 °F /  1.7 °C 32 °F /  0.0 °C 30in /  1015.1hPa NE 6.5mph /  10.5km/h 14.3mph /  23.0km/h 88% 0in /  0.0mm
05:49 34.9 °F /  1.6 °C 32 °F /  0.0 °C 30in /  1015.1hPa ENE 14.5mph /  23.3km/h 14.8mph /  23.8km/h 87% 0in /  0.0mm
05:54 34.5 °F /  1.4 °C 30.2 °F /  -1.0 °C 30in /  1015.1hPa NE 12.1mph /  19.5km/h 16.8mph /  27.0km/h 85% 0in /  0.0mm
05:59 34.3 °F /  1.3 °C 30.2 °F /  -1.0 °C 29.9in /  1014.1hPa NE 16.8mph /  27.0km/h 22.1mph /  35.6km/h 82% 0in /  0.0mm
06:04 34 °F /  1.1 °C 28.4 °F /  -2.0 °C 29.9in /  1014.1hPa NE 12.5mph /  20.1km/h 22.8mph /  36.7km/h 79% 0in /  0.0mm
06:09 33.8 °F /  1.0 °C 28.4 °F /  -2.0 °C 29.9in /  1014.1hPa NNE 10.1mph /  16.3km/h 22.8mph /  36.7km/h 81% 0in /  0.0mm
06:14 33.8 °F /  1.0 °C 28.4 °F /  -2.0 °C 30in /  1015.1hPa NE 16.1mph /  25.9km/h 21mph /  33.8km/h 81% 0in /  0.0mm
06:19 33.6 °F /  0.9 °C 28.4 °F /  -2.0 °C 30in /  1015.1hPa NE 12.5mph /  20.1km/h 17.4mph /  28.0km/h 80% 0in /  0.0mm
06:24 33.3 °F /  0.7 °C 28.4 °F /  -2.0 °C 30in /  1015.1hPa NE 15.4mph /  24.8km/h 17.4mph /  28.0km/h 80% 0in /  0.0mm
06:29 33.3 °F /  0.7 °C 28.4 °F /  -2.0 °C 30in /  1015.1hPa NNE 10.7mph /  17.2km/h 17mph /  27.4km/h 80% 0in /  0.0mm
06:34 33.1 °F /  0.6 °C 28.4 °F /  -2.0 °C 30in /  1015.1hPa NE 10.3mph /  16.6km/h 17.4mph /  28.0km/h 80% 0in /  0.0mm
06:39 32.9 °F /  0.5 °C 28.4 °F /  -2.0 °C 30in /  1015.1hPa NNE 13mph /  20.9km/h 17.4mph /  28.0km/h 81% 0in /  0.0mm
06:45 32.7 °F /  0.4 °C 28.4 °F /  -2.0 °C 30in /  1015.1hPa NNE 10.3mph /  16.6km/h 14.1mph /  22.7km/h 80% 0in /  0.0mm
06:50 32.7 °F /  0.4 °C 28.4 °F /  -2.0 °C 30in /  1015.1hPa NE 7.8mph /  12.6km/h 14.8mph /  23.8km/h 80% 0in /  0.0mm
06:55 32.7 °F /  0.4 °C 28.4 °F /  -2.0 °C 30in /  1015.1hPa North 10.7mph /  17.2km/h 14.8mph /  23.8km/h 81% 0in /  0.0mm
07:00 32.5 °F /  0.3 °C 28.4 °F /  -2.0 °C 30in /  1016.1hPa NNE 10.5mph /  16.9km/h 12.5mph /  20.1km/h 81% 0in /  0.0mm
07:05 32.5 °F /  0.3 °C 28.4 °F /  -2.0 °C 30in /  1016.1hPa NE 7.6mph /  12.2km/h 14.3mph /  23.0km/h 81% 0in /  0.0mm
07:10 32.5 °F /  0.3 °C 28.4 °F /  -2.0 °C 30in /  1016.1hPa NE 10.3mph /  16.6km/h 14.3mph /  23.0km/h 82% 0in /  0.0mm
07:15 32.4 °F /  0.2 °C 28.4 °F /  -2.0 °C 30in /  1016.1hPa NNE 8.7mph /  14.0km/h 12.3mph /  19.8km/h 82% 0in /  0.0mm
07:20 32.4 °F /  0.2 °C 28.4 °F /  -2.0 °C 30in /  1016.1hPa NE 8.5mph /  13.7km/h 13.2mph /  21.2km/h 82% 0in /  0.0mm
07:25 32.2 °F /  0.1 °C 28.4 °F /  -2.0 °C 30in /  1016.1hPa NE 10.3mph /  16.6km/h 13.2mph /  21.2km/h 83% 0in /  0.0mm
07:30 32.4 °F /  0.2 °C 28.4 °F /  -2.0 °C 30in /  1016.8hPa NE 7.2mph /  11.6km/h 14.5mph /  23.3km/h 83% 0in /  0.0mm
07:35 32.2 °F /  0.1 °C 28.4 °F /  -2.0 °C 30in /  1016.8hPa NE 7.8mph /  12.6km/h 14.5mph /  23.3km/h 83% 0in /  0.0mm
07:40 32.4 °F /  0.2 °C 28.4 °F /  -2.0 °C 30in /  1016.8hPa NE 8.5mph /  13.7km/h 12.5mph /  20.1km/h 83% 0in /  0.0mm
07:45 32.5 °F /  0.3 °C 28.4 °F /  -2.0 °C 30in /  1016.1hPa NE 7.8mph /  12.6km/h 13.6mph /  21.9km/h 83% 0in /  0.0mm
07:50 32.5 °F /  0.3 °C 28.4 °F /  -2.0 °C 30in /  1016.1hPa NE 9.8mph /  15.8km/h 14.5mph /  23.3km/h 83% 0in /  0.0mm
07:55 32.7 °F /  0.4 °C 28.4 °F /  -2.0 °C 30in /  1016.1hPa NE 10.3mph /  16.6km/h 14.5mph /  23.3km/h 82% 0in /  0.0mm
08:00 32.7 °F /  0.4 °C 28.4 °F /  -2.0 °C 30in /  1016.8hPa NE 11mph /  17.7km/h 12.8mph /  20.6km/h 82% 0in /  0.0mm
08:05 32.7 °F /  0.4 °C 28.4 °F /  -2.0 °C 30in /  1016.8hPa NE 7.6mph /  12.2km/h 11mph /  17.7km/h 82% 0in /  0.0mm
08:11 32.7 °F /  0.4 °C 28.4 °F /  -2.0 °C 30in /  1016.8hPa NE 5.4mph /  8.7km/h 8.7mph /  14.0km/h 82% 0in /  0.0mm
08:16 32.5 °F /  0.3 °C 28.4 °F /  -2.0 °C 30.1in /  1018.2hPa NE 3.6mph /  5.8km/h 8.1mph /  13.0km/h 83% 0in /  0.0mm
08:21 32.5 °F /  0.3 °C 28.4 °F /  -2.0 °C 30.1in /  1018.2hPa NNE 4.9mph /  7.9km/h 7.8mph /  12.6km/h 83% 0in /  0.0mm
08:26 32.5 °F /  0.3 °C 28.4 °F /  -2.0 °C 30.1in /  1018.2hPa NE 5.6mph /  9.0km/h 7.8mph /  12.6km/h 84% 0in /  0.0mm
08:31 32.5 °F /  0.3 °C 28.4 °F /  -2.0 °C 30.1in /  1018.2hPa Calm   7.2mph /  11.6km/h 84% 0in /  0.0mm
08:36 32.4 °F /  0.2 °C 28.4 °F /  -2.0 °C 30.1in /  1018.2hPa ENE 3.8mph /  6.1km/h 5.6mph /  9.0km/h 84% 0in /  0.0mm
08:41 32.5 °F /  0.3 °C 30.2 °F /  -1.0 °C 30.1in /  1018.2hPa Calm   4.9mph /  7.9km/h 85% 0in /  0.0mm
08:46 32.5 °F /  0.3 °C 30.2 °F /  -1.0 °C 30.1in /  1018.2hPa NE 1.1mph /  1.8km/h 5.4mph /  8.7km/h 85% 0in /  0.0mm
08:51 32.7 °F /  0.4 °C 30.2 °F /  -1.0 °C 30.1in /  1018.2hPa NE 4.9mph /  7.9km/h 5.4mph /  8.7km/h 87% 0in /  0.0mm
08:56 32.7 °F /  0.4 °C 30.2 °F /  -1.0 °C 30.1in /  1018.2hPa NNE 5.4mph /  8.7km/h 6.5mph /  10.5km/h 87% 0in /  0.0mm
09:01 32.9 °F /  0.5 °C 30.2 °F /  -1.0 °C 30.1in /  1018.8hPa NNE 4.9mph /  7.9km/h 7.4mph /  11.9km/h 87% 0in /  0.0mm
09:06 33.1 °F /  0.6 °C 30.2 °F /  -1.0 °C 30.1in /  1018.8hPa NE 5.4mph /  8.7km/h 8.1mph /  13.0km/h 86% 0in /  0.0mm
09:11 33.3 °F /  0.7 °C 30.2 °F /  -1.0 °C 30.1in /  1018.8hPa NNE 4.7mph /  7.6km/h 8.1mph /  13.0km/h 86% 0in /  0.0mm
09:16 33.3 °F /  0.7 °C 30.2 °F /  -1.0 °C 30.1in /  1018.8hPa NE 6mph /  9.7km/h 7.2mph /  11.6km/h 86% 0in /  0.0mm
09:21 33.4 °F /  0.8 °C 30.2 °F /  -1.0 °C 30.1in /  1018.8hPa NNE 5.4mph /  8.7km/h 7.6mph /  12.2km/h 86% 0in /  0.0mm
09:26 33.6 °F /  0.9 °C 30.2 °F /  -1.0 °C 30.1in /  1018.8hPa NNE 4.7mph /  7.6km/h 8.1mph /  13.0km/h 86% 0in /  0.0mm
09:31 33.6 °F /  0.9 °C 30.2 °F /  -1.0 °C 30.1in /  1018.8hPa NNE 4.9mph /  7.9km/h 8.1mph /  13.0km/h 86% 0in /  0.0mm
09:36 33.8 °F /  1.0 °C 30.2 °F /  -1.0 °C 30.1in /  1018.8hPa NNE 3.6mph /  5.8km/h 5.8mph /  9.3km/h 86% 0in /  0.0mm
09:42 33.8 °F /  1.0 °C 30.2 °F /  -1.0 °C 30.1in /  1018.8hPa NNE 4.3mph /  6.9km/h 6mph /  9.7km/h 86% 0in /  0.0mm
09:47 33.8 °F /  1.0 °C 30.2 °F /  -1.0 °C 30.1in /  1018.8hPa NE 5.6mph /  9.0km/h 6mph /  9.7km/h 86% 0in /  0.0mm
09:52 34 °F /  1.1 °C 30.2 °F /  -1.0 °C 30.1in /  1018.8hPa NE 8.1mph /  13.0km/h 8.1mph /  13.0km/h 86% 0in /  0.0mm
09:57 34.2 °F /  1.2 °C 30.2 °F /  -1.0 °C 30.1in /  1018.8hPa NNE 7.6mph /  12.2km/h 8.7mph /  14.0km/h 85% 0in /  0.0mm
10:02 34.3 °F /  1.3 °C 30.2 °F /  -1.0 °C 30.1in /  1019.9hPa NNE 6.5mph /  10.5km/h 8.7mph /  14.0km/h 85% 0in /  0.0mm
10:07 34.3 °F /  1.3 °C 30.2 °F /  -1.0 °C 30.1in /  1019.9hPa NE 7.6mph /  12.2km/h 10.1mph /  16.3km/h 85% 0in /  0.0mm
10:12 34.7 °F /  1.5 °C 32 °F /  0.0 °C 30.1in /  1019.9hPa NE 8.7mph /  14.0km/h 10.5mph /  16.9km/h 85% 0in /  0.0mm
10:17 35.1 °F /  1.7 °C 30.2 °F /  -1.0 °C 30.1in /  1018.8hPa North 7.4mph /  11.9km/h 10.5mph /  16.9km/h 84% 0in /  0.0mm
10:22 35.4 °F /  1.9 °C 32 °F /  0.0 °C 30.1in /  1018.8hPa NE 7.4mph /  11.9km/h 8.7mph /  14.0km/h 85% 0in /  0.0mm
10:27 35.4 °F /  1.9 °C 32 °F /  0.0 °C 30.1in /  1018.8hPa NE 7.6mph /  12.2km/h 8.7mph /  14.0km/h 84% 0in /  0.0mm
10:32 35.6 °F /  2.0 °C 32 °F /  0.0 °C 30.1in /  1019.9hPa NNE 6.7mph /  10.8km/h 9.2mph /  14.8km/h 83% 0in /  0.0mm
10:37 35.6 °F /  2.0 °C 32 °F /  0.0 °C 30.1in /  1019.9hPa NNE 8.5mph /  13.7km/h 9.6mph /  15.4km/h 82% 0in /  0.0mm
10:42 35.8 °F /  2.1 °C 32 °F /  0.0 °C 30.1in /  1019.9hPa NNE 7.4mph /  11.9km/h 9.6mph /  15.4km/h 83% 0in /  0.0mm
10:47 35.8 °F /  2.1 °C 32 °F /  0.0 °C 30.2in /  1020.9hPa NNE 7.4mph /  11.9km/h 10.3mph /  16.6km/h 82% 0in /  0.0mm
10:52 36.1 °F /  2.3 °C 32 °F /  0.0 °C 30.2in /  1020.9hPa NE 7.6mph /  12.2km/h 10.3mph /  16.6km/h 81% 0in /  0.0mm
10:57 36.3 °F /  2.4 °C 32 °F /  0.0 °C 30.2in /  1020.9hPa NNE 7.6mph /  12.2km/h 10.7mph /  17.2km/h 80% 0in /  0.0mm
11:02 36.7 °F /  2.6 °C 30.2 °F /  -1.0 °C 30.1in /  1019.9hPa North 6mph /  9.7km/h 10.7mph /  17.2km/h 78% 0in /  0.0mm
11:07 37 °F /  2.8 °C 32 °F /  0.0 °C 30.1in /  1019.9hPa NE 7.4mph /  11.9km/h 9.8mph /  15.8km/h 78% 0in /  0.0mm
11:12 37 °F /  2.8 °C 32 °F /  0.0 °C 30.1in /  1019.9hPa NE 5.4mph /  8.7km/h 8.7mph /  14.0km/h 77% 0in /  0.0mm
11:17 37.8 °F /  3.2 °C 32 °F /  0.0 °C 30.2in /  1020.9hPa NNE 4.3mph /  6.9km/h 8.1mph /  13.0km/h 78% 0in /  0.0mm
11:22 38.5 °F /  3.6 °C 32 °F /  0.0 °C 30.2in /  1020.9hPa NE 4mph /  6.4km/h 8.5mph /  13.7km/h 76% 0in /  0.0mm
11:27 38.8 °F /  3.8 °C 32 °F /  0.0 °C 30.2in /  1020.9hPa ENE 8.5mph /  13.7km/h 8.5mph /  13.7km/h 76% 0in /  0.0mm
11:32 38.8 °F /  3.8 °C 30.2 °F /  -1.0 °C 30.2in /  1020.9hPa ENE 7.8mph /  12.6km/h 10.7mph /  17.2km/h 72% 0in /  0.0mm
11:37 39.2 °F /  4.0 °C 32 °F /  0.0 °C 30.2in /  1020.9hPa NE 7.8mph /  12.6km/h 10.7mph /  17.2km/h 72% 0in /  0.0mm
11:42 39.4 °F /  4.1 °C 30.2 °F /  -1.0 °C 30.2in /  1020.9hPa ENE 7.6mph /  12.2km/h 11mph /  17.7km/h 71% 0in /  0.0mm
11:47 39.9 °F /  4.4 °C 32 °F /  0.0 °C 30.2in /  1020.9hPa NE 8.1mph /  13.0km/h 11mph /  17.7km/h 71% 0in /  0.0mm
11:52 39.9 °F /  4.4 °C 30.2 °F /  -1.0 °C 30.2in /  1020.9hPa NNE 8.5mph /  13.7km/h 13mph /  20.9km/h 69% 0in /  0.0mm
11:57 40.1 °F /  4.5 °C 30.2 °F /  -1.0 °C 30.2in /  1020.9hPa NNE 10.1mph /  16.3km/h 13mph /  20.9km/h 67% 0in /  0.0mm
12:03 40.1 °F /  4.5 °C 30.2 °F /  -1.0 °C 30.2in /  1020.9hPa NE 9.2mph /  14.8km/h 14.8mph /  23.8km/h 66% 0in /  0.0mm
12:08 40.5 °F /  4.7 °C 30.2 °F /  -1.0 °C 30.2in /  1020.9hPa NNE 8.5mph /  13.7km/h 14.8mph /  23.8km/h 68% 0in /  0.0mm
12:13 40.5 °F /  4.7 °C 30.2 °F /  -1.0 °C 30.2in /  1020.9hPa ENE 10.5mph /  16.9km/h 14.5mph /  23.3km/h 66% 0in /  0.0mm
12:18 40.6 °F /  4.8 °C 30.2 °F /  -1.0 °C 30.2in /  1020.9hPa North 11mph /  17.7km/h 14.5mph /  23.3km/h 67% 0in /  0.0mm
12:23 40.8 °F /  4.9 °C 30.2 °F /  -1.0 °C 30.2in /  1020.9hPa NE 7.8mph /  12.6km/h 13.4mph /  21.6km/h 65% 0in /  0.0mm
12:28 41 °F /  5.0 °C 30.2 °F /  -1.0 °C 30.2in /  1020.9hPa ENE 10.7mph /  17.2km/h 12.5mph /  20.1km/h 65% 0in /  0.0mm
12:33 41.2 °F /  5.1 °C 30.2 °F /  -1.0 °C 30.2in /  1020.9hPa NE 5.8mph /  9.3km/h 12.1mph /  19.5km/h 66% 0in /  0.0mm
12:38 41.4 °F /  5.2 °C 30.2 °F /  -1.0 °C 30.2in /  1020.9hPa NE 10.3mph /  16.6km/h 19.5mph /  31.4km/h 63% 0in /  0.0mm
12:43 41.5 °F /  5.3 °C 30.2 °F /  -1.0 °C 30.2in /  1020.9hPa NNE 12.3mph /  19.8km/h 19.5mph /  31.4km/h 62% 0in /  0.0mm
12:48 42.3 °F /  5.7 °C 30.2 °F /  -1.0 °C 30.2in /  1020.9hPa North 10.3mph /  16.6km/h 17.2mph /  27.7km/h 63% 0in /  0.0mm
12:53 42.4 °F /  5.8 °C 30.2 °F /  -1.0 °C 30.2in /  1020.9hPa NE 12.5mph /  20.1km/h 17.7mph /  28.5km/h 61% 0in /  0.0mm
12:58 42.1 °F /  5.6 °C 30.2 °F /  -1.0 °C 30.2in /  1020.9hPa NE 12.8mph /  20.6km/h 17.7mph /  28.5km/h 62% 0in /  0.0mm
13:03 41.9 °F /  5.5 °C 30.2 °F /  -1.0 °C 30.2in /  1021.9hPa ENE 15.4mph /  24.8km/h 17.2mph /  27.7km/h 62% 0in /  0.0mm
13:08 42.3 °F /  5.7 °C 30.2 °F /  -1.0 °C 30.2in /  1021.9hPa NNE 17.2mph /  27.7km/h 17.2mph /  27.7km/h 61% 0in /  0.0mm
13:13 42.4 °F /  5.8 °C 30.2 °F /  -1.0 °C 30.2in /  1021.9hPa NE 12.5mph /  20.1km/h 17.4mph /  28.0km/h 60% 0in /  0.0mm
13:18 42.8 °F /  6.0 °C 30.2 °F /  -1.0 °C 30.2in /  1020.9hPa NNE 8.1mph /  13.0km/h 17.4mph /  28.0km/h 59% 0in /  0.0mm
13:23 42.8 °F /  6.0 °C 30.2 °F /  -1.0 °C 30.2in /  1020.9hPa NE 13mph /  20.9km/h 17.2mph /  27.7km/h 59% 0in /  0.0mm
13:28 43.2 °F /  6.2 °C 30.2 °F /  -1.0 °C 30.2in /  1020.9hPa NE 12.3mph /  19.8km/h 17.2mph /  27.7km/h 58% 0in /  0.0mm
13:33 42.8 °F /  6.0 °C 30.2 °F /  -1.0 °C 30.2in /  1020.9hPa NNE 17.2mph /  27.7km/h 17.2mph /  27.7km/h 59% 0in /  0.0mm
13:38 42.1 °F /  5.6 °C 30.2 °F /  -1.0 °C 30.2in /  1020.9hPa NE 8.7mph /  14.0km/h 17.7mph /  28.5km/h 59% 0in /  0.0mm
13:43 41.7 °F /  5.4 °C 30.2 °F /  -1.0 °C 30.2in /  1020.9hPa NNE 13.9mph /  22.4km/h 17.7mph /  28.5km/h 60% 0in /  0.0mm
13:48 42.3 °F /  5.7 °C 30.2 °F /  -1.0 °C 30.2in /  1020.9hPa NE 11mph /  17.7km/h 15.9mph /  25.6km/h 63% 0in /  0.0mm
13:53 43.2 °F /  6.2 °C 32 °F /  0.0 °C 30.2in /  1020.9hPa NE 11mph /  17.7km/h 14.3mph /  23.0km/h 64% 0in /  0.0mm
13:58 42.8 °F /  6.0 °C 30.2 °F /  -1.0 °C 30.2in /  1020.9hPa NNW 10.1mph /  16.3km/h 13mph /  20.9km/h 62% 0in /  0.0mm
14:03 42.3 °F /  5.7 °C 30.2 °F /  -1.0 °C 30.2in /  1020.9hPa NNE 13mph /  20.9km/h 15.7mph /  25.3km/h 62% 0in /  0.0mm
14:08 42.1 °F /  5.6 °C 32 °F /  0.0 °C 30.2in /  1020.9hPa NNE 12.3mph /  19.8km/h 15.7mph /  25.3km/h 65% 0in /  0.0mm
14:13 41.5 °F /  5.3 °C 30.2 °F /  -1.0 °C 30.2in /  1020.9hPa NE 8.7mph /  14.0km/h 21.9mph /  35.2km/h 63% 0in /  0.0mm
14:18 41.5 °F /  5.3 °C 32 °F /  0.0 °C 30.2in /  1020.9hPa NE 20.1mph /  32.3km/h 21.9mph /  35.2km/h 65% 0in /  0.0mm
14:23 42.3 °F /  5.7 °C 33.8 °F /  1.0 °C 30.2in /  1020.9hPa NNE 19.2mph /  30.9km/h 21mph /  33.8km/h 69% 0in /  0.0mm
14:29 41.7 °F /  5.4 °C 32 °F /  0.0 °C 30.2in /  1020.9hPa NNE 13mph /  20.9km/h 19.9mph /  32.0km/h 69% 0in /  0.0mm
14:34 41.9 °F /  5.5 °C 32 °F /  0.0 °C 30.2in /  1020.9hPa NE 10.3mph /  16.6km/h 19.9mph /  32.0km/h 67% 0in /  0.0mm
14:39 42.1 °F /  5.6 °C 32 °F /  0.0 °C 30.2in /  1020.9hPa NNE 8.1mph /  13.0km/h 19mph /  30.6km/h 67% 0in /  0.0mm
14:44 41.5 °F /  5.3 °C 32 °F /  0.0 °C 30.2in /  1020.9hPa NE 23.9mph /  38.5km/h 23.9mph /  38.5km/h 68% 0in /  0.0mm
14:49 41.2 °F /  5.1 °C 32 °F /  0.0 °C 30.2in /  1020.9hPa North 19.7mph /  31.7km/h 23.9mph /  38.5km/h 68% 0in /  0.0mm
14:54 41 °F /  5.0 °C 30.2 °F /  -1.0 °C 30.2in /  1020.9hPa NE 19.7mph /  31.7km/h 24.4mph /  39.3km/h 66% 0in /  0.0mm
14:59 42.1 °F /  5.6 °C 33.8 °F /  1.0 °C 30.2in /  1020.9hPa North 15.4mph /  24.8km/h 24.4mph /  39.3km/h 69% 0in /  0.0mm
15:04 42.1 °F /  5.6 °C 32 °F /  0.0 °C 30.2in /  1020.9hPa NNE 20.8mph /  33.5km/h 20.8mph /  33.5km/h 64% 0in /  0.0mm
15:09 41.4 °F /  5.2 °C 32 °F /  0.0 °C 30.2in /  1020.9hPa NNE 13.9mph /  22.4km/h 21.3mph /  34.3km/h 67% 0in /  0.0mm
15:14 41 °F /  5.0 °C 30.2 °F /  -1.0 °C 30.2in /  1020.9hPa NNE 17.7mph /  28.5km/h 22.1mph /  35.6km/h 65% 0in /  0.0mm
15:19 40.5 °F /  4.7 °C 30.2 °F /  -1.0 °C 30.2in /  1020.9hPa NNE 17mph /  27.4km/h 22.6mph /  36.4km/h 65% 0in /  0.0mm
15:24 41.4 °F /  5.2 °C 30.2 °F /  -1.0 °C 30.2in /  1020.9hPa NE 23mph /  37.0km/h 23mph /  37.0km/h 65% 0in /  0.0mm
15:29 41.5 °F /  5.3 °C 28.4 °F /  -2.0 °C 30.2in /  1020.9hPa NE 17.2mph /  27.7km/h 23mph /  37.0km/h 59% 0in /  0.0mm
15:34 41.2 °F /  5.1 °C 28.4 °F /  -2.0 °C 30.2in /  1020.9hPa North 17.7mph /  28.5km/h 19.9mph /  32.0km/h 58% 0in /  0.0mm
15:39 41.5 °F /  5.3 °C 30.2 °F /  -1.0 °C 30.2in /  1020.9hPa NE 8.7mph /  14.0km/h 19.9mph /  32.0km/h 61% 0in /  0.0mm
15:44 41.5 °F /  5.3 °C 28.4 °F /  -2.0 °C 30.1in /  1019.9hPa NNE 12.5mph /  20.1km/h 19.9mph /  32.0km/h 58% 0in /  0.0mm
15:49 41.5 °F /  5.3 °C 28.4 °F /  -2.0 °C 30.1in /  1019.9hPa NE 15.7mph /  25.3km/h 19.7mph /  31.7km/h 59% 0in /  0.0mm
15:54 40.6 °F /  4.8 °C 26.6 °F /  -3.0 °C 30.1in /  1019.9hPa NE 17.4mph /  28.0km/h 24.4mph /  39.3km/h 58% 0in /  0.0mm
15:59 40.1 °F /  4.5 °C 26.6 °F /  -3.0 °C 30.1in /  1019.9hPa NNE 22.8mph /  36.7km/h 24.4mph /  39.3km/h 57% 0in /  0.0mm
16:04 39.9 °F /  4.4 °C 26.6 °F /  -3.0 °C 30.1in /  1019.9hPa NE 15.2mph /  24.5km/h 22.8mph /  36.7km/h 60% 0in /  0.0mm
16:09 40.1 °F /  4.5 °C 28.4 °F /  -2.0 °C 30.1in /  1019.9hPa NE 15.4mph /  24.8km/h 18.8mph /  30.2km/h 61% 0in /  0.0mm
16:14 40.1 °F /  4.5 °C 26.6 °F /  -3.0 °C 30.2in /  1021.9hPa NNE 12.5mph /  20.1km/h 19.9mph /  32.0km/h 59% 0in /  0.0mm
16:20 39.7 °F /  4.3 °C 26.6 °F /  -3.0 °C 30.2in /  1021.9hPa North 13.2mph /  21.2km/h 20.4mph /  32.8km/h 58% 0in /  0.0mm
16:25 39.7 °F /  4.3 °C 26.6 °F /  -3.0 °C 30.2in /  1021.9hPa NE 11mph /  17.7km/h 20.4mph /  32.8km/h 61% 0in /  0.0mm
16:30 39.4 °F /  4.1 °C 26.6 °F /  -3.0 °C 30.2in /  1021.9hPa NE 17.9mph /  28.8km/h 19.7mph /  31.7km/h 62% 0in /  0.0mm
16:35 39.2 °F /  4.0 °C 26.6 °F /  -3.0 °C 30.2in /  1021.9hPa NE 11mph /  17.7km/h 21.3mph /  34.3km/h 62% 0in /  0.0mm
16:40 39 °F /  3.9 °C 28.4 °F /  -2.0 °C 30.2in /  1021.9hPa ENE 9.4mph /  15.1km/h 21.3mph /  34.3km/h 63% 0in /  0.0mm
16:45 38.8 °F /  3.8 °C 26.6 °F /  -3.0 °C 30.2in /  1021.9hPa NE 15.2mph /  24.5km/h 19mph /  30.6km/h 62% 0in /  0.0mm
16:50 38.7 °F /  3.7 °C 26.6 °F /  -3.0 °C 30.2in /  1021.9hPa NE 14.3mph /  23.0km/h 17.7mph /  28.5km/h 62% 0in /  0.0mm
16:55 38.5 °F /  3.6 °C 26.6 °F /  -3.0 °C 30.2in /  1021.9hPa ENE 15.4mph /  24.8km/h 17.2mph /  27.7km/h 62% 0in /  0.0mm
17:00 38.1 °F /  3.4 °C 26.6 °F /  -3.0 °C 30.2in /  1021.9hPa North 10.7mph /  17.2km/h 17.2mph /  27.7km/h 64% 0in /  0.0mm
17:05 37.9 °F /  3.3 °C 26.6 °F /  -3.0 °C 30.2in /  1021.9hPa ENE 8.7mph /  14.0km/h 16.1mph /  25.9km/h 63% 0in /  0.0mm
17:10 37.8 °F /  3.2 °C 26.6 °F /  -3.0 °C 30.2in /  1021.9hPa NE 13mph /  20.9km/h 19.9mph /  32.0km/h 63% 0in /  0.0mm
17:15 37.6 °F /  3.1 °C 26.6 °F /  -3.0 °C 30.2in /  1021.9hPa ENE 10.3mph /  16.6km/h 19.9mph /  32.0km/h 65% 0in /  0.0mm
17:20 37.6 °F /  3.1 °C 26.6 °F /  -3.0 °C 30.2in /  1021.9hPa NE 14.3mph /  23.0km/h 17.4mph /  28.0km/h 65% 0in /  0.0mm
17:25 37.4 °F /  3.0 °C 26.6 °F /  -3.0 °C 30.2in /  1021.9hPa NE 10.3mph /  16.6km/h 15.7mph /  25.3km/h 65% 0in /  0.0mm
17:30 37 °F /  2.8 °C 28.4 °F /  -2.0 °C 30.2in /  1022.9hPa NE 12.3mph /  19.8km/h 14.5mph /  23.3km/h 67% 0in /  0.0mm
17:35 37 °F /  2.8 °C 26.6 °F /  -3.0 °C 30.2in /  1022.9hPa NE 11.9mph /  19.1km/h 15.4mph /  24.8km/h 66% 0in /  0.0mm
17:40 36.9 °F /  2.7 °C 26.6 °F /  -3.0 °C 30.2in /  1022.9hPa NNE 12.3mph /  19.8km/h 15.4mph /  24.8km/h 67% 0in /  0.0mm
17:45 36.7 °F /  2.6 °C 26.6 °F /  -3.0 °C 30.2in /  1022.9hPa NE 13mph /  20.9km/h 15.4mph /  24.8km/h 67% 0in /  0.0mm
17:50 36.7 °F /  2.6 °C 28.4 °F /  -2.0 °C 30.2in /  1022.9hPa NE 11.4mph /  18.3km/h 15.4mph /  24.8km/h 68% 0in /  0.0mm
17:55 36.7 °F /  2.6 °C 28.4 °F /  -2.0 °C 30.2in /  1022.9hPa NE 8.5mph /  13.7km/h 14.8mph /  23.8km/h 68% 0in /  0.0mm
18:00 36.7 °F /  2.6 °C 28.4 °F /  -2.0 °C 30.2in /  1022.9hPa NE 10.5mph /  16.9km/h 17.2mph /  27.7km/h 68% 0in /  0.0mm
18:05 36.7 °F /  2.6 °C 28.4 °F /  -2.0 °C 30.2in /  1022.9hPa NE 9.4mph /  15.1km/h 17.2mph /  27.7km/h 69% 0in /  0.0mm
18:11 36.7 °F /  2.6 °C 28.4 °F /  -2.0 °C 30.2in /  1022.9hPa NE 9.2mph /  14.8km/h 13.2mph /  21.2km/h 69% 0in /  0.0mm
18:16 36.7 °F /  2.6 °C 28.4 °F /  -2.0 °C 30.2in /  1022.9hPa NNE 8.1mph /  13.0km/h 11.9mph /  19.1km/h 69% 0in /  0.0mm
18:21 36.7 °F /  2.6 °C 28.4 °F /  -2.0 °C 30.2in /  1022.9hPa NE 8.1mph /  13.0km/h 13mph /  20.9km/h 69% 0in /  0.0mm
18:26 36.5 °F /  2.5 °C 28.4 °F /  -2.0 °C 30.2in /  1022.9hPa NE 7.8mph /  12.6km/h 13mph /  20.9km/h 69% 0in /  0.0mm
18:31 36.3 °F /  2.4 °C 28.4 °F /  -2.0 °C 30.2in /  1021.9hPa NNE 8.7mph /  14.0km/h 10.3mph /  16.6km/h 70% 0in /  0.0mm
18:36 36 °F /  2.2 °C 28.4 °F /  -2.0 °C 30.2in /  1021.9hPa NE 6.5mph /  10.5km/h 8.7mph /  14.0km/h 71% 0in /  0.0mm
18:41 35.8 °F /  2.1 °C 28.4 °F /  -2.0 °C 30.2in /  1021.9hPa NE 6.7mph /  10.8km/h 8.7mph /  14.0km/h 71% 0in /  0.0mm
18:46 35.8 °F /  2.1 °C 28.4 °F /  -2.0 °C 30.2in /  1022.9hPa NE 5.8mph /  9.3km/h 8.7mph /  14.0km/h 72% 0in /  0.0mm
18:51 35.6 °F /  2.0 °C 28.4 °F /  -2.0 °C 30.2in /  1022.9hPa NNE 7.8mph /  12.6km/h 8.7mph /  14.0km/h 72% 0in /  0.0mm
18:56 35.4 °F /  1.9 °C 28.4 °F /  -2.0 °C 30.2in /  1022.9hPa NE 7.8mph /  12.6km/h 8.5mph /  13.7km/h 74% 0in /  0.0mm
19:01 35.6 °F /  2.0 °C 28.4 °F /  -2.0 °C 30.2in /  1022.9hPa NE 7.4mph /  11.9km/h 8.9mph /  14.3km/h 74% 0in /  0.0mm
19:06 35.8 °F /  2.1 °C 28.4 °F /  -2.0 °C 30.2in /  1022.9hPa NNE 8.5mph /  13.7km/h 8.9mph /  14.3km/h 74% 0in /  0.0mm
19:11 35.8 °F /  2.1 °C 28.4 °F /  -2.0 °C 30.2in /  1022.9hPa NNE 7.8mph /  12.6km/h 9.2mph /  14.8km/h 74% 0in /  0.0mm
19:16 35.6 °F /  2.0 °C 28.4 °F /  -2.0 °C 30.2in /  1022.9hPa NE 8.5mph /  13.7km/h 9.2mph /  14.8km/h 74% 0in /  0.0mm
19:21 35.6 °F /  2.0 °C 30.2 °F /  -1.0 °C 30.2in /  1022.9hPa NE 8.1mph /  13.0km/h 8.7mph /  14.0km/h 75% 0in /  0.0mm
19:26 35.1 °F /  1.7 °C 28.4 °F /  -2.0 °C 30.2in /  1022.9hPa NE 6.3mph /  10.1km/h 8.7mph /  14.0km/h 76% 0in /  0.0mm
19:31 35.1 °F /  1.7 °C 28.4 °F /  -2.0 °C 30.2in /  1023.9hPa NE 5.6mph /  9.0km/h 8.5mph /  13.7km/h 76% 0in /  0.0mm
19:36 34.9 °F /  1.6 °C 28.4 °F /  -2.0 °C 30.2in /  1023.9hPa NNE 4mph /  6.4km/h 7.4mph /  11.9km/h 77% 0in /  0.0mm
19:41 34.9 °F /  1.6 °C 28.4 °F /  -2.0 °C 30.2in /  1023.9hPa NE 2mph /  3.2km/h 7.4mph /  11.9km/h 77% 0in /  0.0mm
19:46 34.2 °F /  1.2 °C 28.4 °F /  -2.0 °C 30.2in /  1023.9hPa NNE 5.6mph /  9.0km/h 5.8mph /  9.3km/h 78% 0in /  0.0mm
19:51 34 °F /  1.1 °C 28.4 °F /  -2.0 °C 30.2in /  1023.9hPa NNE 6.3mph /  10.1km/h 6.3mph /  10.1km/h 79% 0in /  0.0mm
19:56 33.8 °F /  1.0 °C 28.4 °F /  -2.0 °C 30.2in /  1023.9hPa NNE 3.6mph /  5.8km/h 6.5mph /  10.5km/h 79% 0in /  0.0mm
20:01 33.8 °F /  1.0 °C 28.4 °F /  -2.0 °C 30.3in /  1024.9hPa NE 4.3mph /  6.9km/h 6.5mph /  10.5km/h 80% 0in /  0.0mm
20:06 33.8 °F /  1.0 °C 28.4 °F /  -2.0 °C 30.3in /  1024.9hPa NNE 2.9mph /  4.7km/h 6mph /  9.7km/h 81% 0in /  0.0mm
20:11 33.8 °F /  1.0 °C 28.4 °F /  -2.0 °C 30.3in /  1024.9hPa NNE 3.6mph /  5.8km/h 6mph /  9.7km/h 81% 0in /  0.0mm
20:17 34 °F /  1.1 °C 30.2 °F /  -1.0 °C 30.2in /  1023.9hPa NNE 3.6mph /  5.8km/h 5.6mph /  9.0km/h 82% 0in /  0.0mm
20:22 34 °F /  1.1 °C 30.2 °F /  -1.0 °C 30.2in /  1023.9hPa NNE 0.9mph /  1.4km/h 5.6mph /  9.0km/h 82% 0in /  0.0mm
20:26 34 °F /  1.1 °C 30.2 °F /  -1.0 °C 30.2in /  1023.9hPa NNE 3.4mph /  5.5km/h 4.3mph /  6.9km/h 82% 0in /  0.0mm
20:32 34 °F /  1.1 °C 30.2 °F /  -1.0 °C 30.3in /  1024.9hPa NE 3.6mph /  5.8km/h 4.3mph /  6.9km/h 82% 0in /  0.0mm
20:37 34 °F /  1.1 °C 30.2 °F /  -1.0 °C 30.3in /  1024.9hPa NNE 3.8mph /  6.1km/h 5.8mph /  9.3km/h 82% 0in /  0.0mm
20:42 34 °F /  1.1 °C 30.2 °F /  -1.0 °C 30.3in /  1024.9hPa NE 3.4mph /  5.5km/h 6mph /  9.7km/h 82% 0in /  0.0mm
20:47 34 °F /  1.1 °C 30.2 °F /  -1.0 °C 30.3in /  1024.9hPa NNE 3.4mph /  5.5km/h 6mph /  9.7km/h 82% 0in /  0.0mm
20:52 34 °F /  1.1 °C 30.2 °F /  -1.0 °C 30.3in /  1024.9hPa NE 1.6mph /  2.6km/h 4.7mph /  7.6km/h 82% 0in /  0.0mm
20:57 34 °F /  1.1 °C 30.2 °F /  -1.0 °C 30.3in /  1024.9hPa NNW 3.8mph /  6.1km/h 4.3mph /  6.9km/h 82% 0in /  0.0mm
21:02 34 °F /  1.1 °C 30.2 °F /  -1.0 °C 30.3in /  1024.9hPa NE 4mph /  6.4km/h 4.3mph /  6.9km/h 82% 0in /  0.0mm
21:07 34 °F /  1.1 °C 30.2 °F /  -1.0 °C 30.3in /  1024.9hPa NNE 3.4mph /  5.5km/h 4.3mph /  6.9km/h 82% 0in /  0.0mm
21:12 33.8 °F /  1.0 °C 30.2 °F /  -1.0 °C 30.3in /  1024.9hPa NNW 1.3mph /  2.1km/h 3.8mph /  6.1km/h 82% 0in /  0.0mm
21:17 33.8 °F /  1.0 °C 30.2 °F /  -1.0 °C 30.3in /  1024.9hPa NE 2.2mph /  3.5km/h 4.3mph /  6.9km/h 82% 0in /  0.0mm
21:22 33.8 °F /  1.0 °C 30.2 °F /  -1.0 °C 30.3in /  1024.9hPa NNE 1.1mph /  1.8km/h 4.3mph /  6.9km/h 82% 0in /  0.0mm
21:27 33.8 °F /  1.0 °C 30.2 °F /  -1.0 °C 30.3in /  1024.9hPa North 5.6mph /  9.0km/h 5.6mph /  9.0km/h 82% 0in /  0.0mm
21:32 34.2 °F /  1.2 °C 30.2 °F /  -1.0 °C 30.3in /  1024.9hPa NNW 4mph /  6.4km/h 5.6mph /  9.0km/h 84% 0in /  0.0mm
21:37 34.2 °F /  1.2 °C 30.2 °F /  -1.0 °C 30.3in /  1024.9hPa NNE 1.3mph /  2.1km/h 5.8mph /  9.3km/h 84% 0in /  0.0mm
21:42 34.2 °F /  1.2 °C 30.2 °F /  -1.0 °C 30.3in /  1024.9hPa North 3.1mph /  5.0km/h 5.8mph /  9.3km/h 84% 0in /  0.0mm
21:47 34.3 °F /  1.3 °C 30.2 °F /  -1.0 °C 30.3in /  1024.9hPa Calm   5.6mph /  9.0km/h 84% 0in /  0.0mm
21:53 34.3 °F /  1.3 °C 30.2 °F /  -1.0 °C 30.3in /  1024.9hPa NNE 4mph /  6.4km/h 5.6mph /  9.0km/h 84% 0in /  0.0mm
21:58 34.3 °F /  1.3 °C 30.2 °F /  -1.0 °C 30.3in /  1024.9hPa NE 4mph /  6.4km/h 6.3mph /  10.1km/h 84% 0in /  0.0mm
22:03 34.9 °F /  1.6 °C 32 °F /  0.0 °C 30.3in /  1024.9hPa NNE 4.9mph /  7.9km/h 6.5mph /  10.5km/h 86% 0in /  0.0mm
22:08 34.9 °F /  1.6 °C 32 °F /  0.0 °C 30.3in /  1024.9hPa NE 2.5mph /  4.0km/h 6.5mph /  10.5km/h 86% 0in /  0.0mm
22:13 34.9 °F /  1.6 °C 32 °F /  0.0 °C 30.3in /  1024.9hPa NE 7.8mph /  12.6km/h 7.8mph /  12.6km/h 86% 0in /  0.0mm
22:18 34.9 °F /  1.6 °C 32 °F /  0.0 °C 30.3in /  1024.9hPa NE 5.6mph /  9.0km/h 7.8mph /  12.6km/h 86% 0in /  0.0mm
22:23 34.9 °F /  1.6 °C 32 °F /  0.0 °C 30.3in /  1024.9hPa North 5.4mph /  8.7km/h 8.1mph /  13.0km/h 86% 0in /  0.0mm
22:28 34.9 °F /  1.6 °C 32 °F /  0.0 °C 30.3in /  1024.9hPa North 6mph /  9.7km/h 8.1mph /  13.0km/h 86% 0in /  0.0mm
22:33 35.4 °F /  1.9 °C 32 °F /  0.0 °C 30.3in /  1024.9hPa NNE 6.9mph /  11.1km/h 8.5mph /  13.7km/h 88% 0in /  0.0mm
22:38 35.4 °F /  1.9 °C 32 °F /  0.0 °C 30.3in /  1024.9hPa NE 4mph /  6.4km/h 8.5mph /  13.7km/h 88% 0in /  0.0mm
22:43 35.4 °F /  1.9 °C 32 °F /  0.0 °C 30.3in /  1024.9hPa ENE 6mph /  9.7km/h 10.1mph /  16.3km/h 88% 0in /  0.0mm
22:48 35.4 °F /  1.9 °C 32 °F /  0.0 °C 30.2in /  1023.9hPa NE 8.7mph /  14.0km/h 10.1mph /  16.3km/h 88% 0in /  0.0mm
22:53 35.8 °F /  2.1 °C 33.8 °F /  1.0 °C 30.2in /  1023.9hPa NE 10.1mph /  16.3km/h 11.9mph /  19.1km/h 90% 0in /  0.0mm
22:58 36 °F /  2.2 °C 33.8 °F /  1.0 °C 30.2in /  1023.9hPa NNE 8.7mph /  14.0km/h 11.9mph /  19.1km/h 90% 0in /  0.0mm
23:03 36 °F /  2.2 °C 33.8 °F /  1.0 °C 30.2in /  1023.9hPa ENE 8.7mph /  14.0km/h 11mph /  17.7km/h 90% 0in /  0.0mm
23:08 36.1 °F /  2.3 °C 33.8 °F /  1.0 °C 30.2in /  1023.9hPa ENE 8.7mph /  14.0km/h 13.4mph /  21.6km/h 90% 0in /  0.0mm
23:13 36.1 °F /  2.3 °C 33.8 °F /  1.0 °C 30.2in /  1023.9hPa NE 6.5mph /  10.5km/h 13.4mph /  21.6km/h 90% 0in /  0.0mm
23:19 36.1 °F /  2.3 °C 33.8 °F /  1.0 °C 30.2in /  1023.9hPa East 7.2mph /  11.6km/h 8.7mph /  14.0km/h 90% 0in /  0.0mm
23:24 36.1 °F /  2.3 °C 33.8 °F /  1.0 °C 30.2in /  1023.9hPa ENE 6.3mph /  10.1km/h 8.1mph /  13.0km/h 90% 0in /  0.0mm
23:29 36.1 °F /  2.3 °C 33.8 °F /  1.0 °C 30.2in /  1023.9hPa NE 5.4mph /  8.7km/h 7.4mph /  11.9km/h 90% 0in /  0.0mm
23:34 36.1 °F /  2.3 °C 33.8 °F /  1.0 °C 30.2in /  1023.9hPa East 5.4mph /  8.7km/h 8.5mph /  13.7km/h 90% 0in /  0.0mm
23:39 36.1 °F /  2.3 °C 33.8 °F /  1.0 °C 30.2in /  1023.9hPa ENE 3.6mph /  5.8km/h 8.5mph /  13.7km/h 90% 0in /  0.0mm
23:44 36.1 °F /  2.3 °C 33.8 °F /  1.0 °C 30.2in /  1023.9hPa ENE 5.4mph /  8.7km/h 7.2mph /  11.6km/h 90% 0in /  0.0mm
23:49 36.1 °F /  2.3 °C 33.8 °F /  1.0 °C 30.2in /  1023.9hPa NE 4.7mph /  7.6km/h 7.2mph /  11.6km/h 90% 0in /  0.0mm
23:54 36.1 °F /  2.3 °C 33.8 °F /  1.0 °C 30.2in /  1023.9hPa East 5.4mph /  8.7km/h 8.1mph /  13.0km/h 90% 0in /  0.0mm
23:59 36.1 °F /  2.3 °C 33.8 °F /  1.0 °C 30.3in /  1024.9hPa NE 8.5mph /  13.7km/h 8.5mph /  13.7km/h 90% 0in /  0.0mm
Données Historique de Météo Turbie

Mise a jour : 26/05/2018 05:52:13
Généré par Cumulus 1.9.4 (1099)